Data for 02/06/2005

Time Sea-Level Adjusted Pressure Absolute Pressure Temperature Relative Humidity Dew Point   
(mb) (inHg) (mb) (inHg) (C) (F) (%) (C) (F)
00:05 1014 29.94 843 24.89 -7.3 18.8 64 -13 8.6
00:10 1014 29.94 843 24.89 -7 19.4 62 -13 8.6
00:15 1014 29.94 843 24.89 -6.8 19.7 61 -13 8.5
00:20 1014 29.94 843 24.89 -6.9 19.6 61 -13.3 8.1
00:25 1014 29.94 843 24.89 -6.4 20.5 58 -13.4 7.8
00:30 1014 29.94 843 24.89 -6.3 20.7 58 -13.1 8.3
00:35 1014 29.94 843 24.89 -6.6 20.1 59 -13.3 8.1
00:40 1014 29.94 843 24.89 -6.7 19.9 60 -13.3 8.1
00:45 1014 29.94 843 24.89 -6.7 19.9 60 -13.2 8.2
00:50 1014 29.94 843 24.89 -6.3 20.6 60 -12.9 8.8
00:55 1014 29.94 843 24.89 -6 21.3 59 -12.7 9.1
01:00 1014 29.94 843 24.89 -6 21.2 55 -13.7 7.4
01:05 1014 29.94 843 24.89 -5.1 22.7 52 -13.5 7.7
01:10 1014 29.94 843 24.89 -5.2 22.6 55 -12.9 8.8
01:15 1014 29.94 843 24.89 -5.5 22.1 54 -13.4 7.9
01:20 1014 29.94 843 24.89 -6 21.3 58 -12.9 8.7
01:25 1014 29.94 843 24.89 -6.4 20.5 59 -13.1 8.4
01:30 1014 29.94 843 24.89 -6.8 19.8 60 -13.2 8.2
01:35 1014 29.94 843 24.89 -6.6 20.1 60 -13.1 8.4
01:40 1014 29.94 843 24.89 -6.4 20.5 60 -13 8.6
01:45 1014 29.94 843 24.89 -6.4 20.5 61 -12.8 9
01:50 1014 29.94 843 24.89 -6.6 20.2 62 -12.7 9.1
01:55 1014 29.94 843 24.89 -6.8 19.8 63 -12.8 9
02:00 1014 29.94 843 24.89 -6.7 19.9 62 -12.8 9
02:05 1014 29.94 843 24.89 -6.7 19.9 63 -12.7 9.2
02:10 1014 29.94 843 24.89 -6.6 20.2 62 -12.7 9.1
02:15 1014 29.94 843 24.89 -6.5 20.4 61 -12.7 9.1
02:20 1014 29.94 843 24.89 -6.4 20.4 61 -12.7 9.2
02:25 1014 29.94 843 24.89 -6.5 20.3 61 -12.8 9
02:30 1014 29.94 843 24.89 -6.5 20.2 61 -12.8 8.9
02:35 1014 29.94 843 24.89 -6.7 20 63 -12.6 9.4
02:40 1014 29.94 843 24.89 -7 19.5 64 -12.6 9.3
02:45 1014 29.94 843 24.89 -7.1 19.2 65 -12.6 9.3
02:50 1014 29.94 843 24.89 -7.1 19.2 65 -12.6 9.3
02:55 1014 29.94 843 24.89 -6.9 19.5 63 -12.8 8.9
03:00 1014 29.94 843 24.89 -6.7 20 62 -12.8 8.9
03:05 1014 29.94 843 24.89 -6.6 20.1 62 -12.7 9.2
03:10 1014 29.94 843 24.89 -6.7 19.9 63 -12.7 9.2
03:15 1014 29.94 843 24.89 -6.6 20.1 63 -12.6 9.2
03:20 1014 29.94 843 24.89 -6.7 19.9 64 -12.4 9.6
03:25 1014 29.94 843 24.89 -7 19.3 65 -12.5 9.6
03:30 1014 29.94 843 24.89 -7.1 19.3 64 -12.7 9.2
03:35 1014 29.94 843 24.89 -7.1 19.2 64 -12.7 9.1
03:40 1014 29.94 843 24.89 -7.2 19.1 65 -12.6 9.3
03:45 1014 29.94 843 24.89 -7.3 18.9 66 -12.5 9.5
03:50 1014 29.94 843 24.89 -7.5 18.5 66 -12.7 9.1
03:55 1014 29.94 843 24.89 -7.4 18.6 66 -12.8 9
04:00 1014 29.94 843 24.89 -7.4 18.8 65 -12.8 9
04:05 1014 29.94 843 24.89 -7.4 18.7 66 -12.8 9
04:10 1014 29.94 843 24.89 -7.3 18.8 66 -12.7 9.2
04:15 1014 29.94 843 24.89 -7.2 19.1 65 -12.7 9.1
04:20 1014 29.94 843 24.89 -7.2 19.1 65 -12.6 9.3
04:25 1014 29.94 843 24.89 -7 19.4 64 -12.7 9.2
04:30 1014 29.94 843 24.89 -6.9 19.6 64 -12.6 9.3
04:35 1014 29.94 843 24.89 -6.8 19.8 64 -12.5 9.6
04:40 1014 29.94 843 24.89 -6.7 19.9 64 -12.5 9.6
04:45 1014 29.94 843 24.89 -7 19.4 66 -12.3 9.8
04:50 1014 29.94 843 24.89 -7 19.4 65 -12.4 9.6
04:55 1014 29.94 843 24.89 -6.8 19.7 64 -12.5 9.5
05:00 1014 29.94 843 24.89 -6.9 19.7 65 -12.4 9.6
05:05 1014 29.94 843 24.89 -6.9 19.6 63 -12.8 8.9
05:10 1014 29.94 843 24.89 -6.9 19.7 63 -12.9 8.9
05:15 1014 29.94 843 24.89 -7 19.4 62 -13 8.6
05:20 1014 29.94 843 24.89 -7.1 19.3 62 -13.1 8.4
05:25 1014 29.94 843 24.89 -7.1 19.2 62 -13.2 8.2
05:30 1014 29.94 843 24.89 -7.1 19.2 62 -13.2 8.3
05:35 1014 29.94 843 24.89 -7.2 19.1 62 -13.2 8.2
05:40 1014 29.94 843 24.89 -7.2 19 63 -13.1 8.5
05:45 1014 29.94 843 24.89 -7.3 18.9 63 -13.2 8.3
05:50 1014 29.94 843 24.89 -7.2 19.1 61 -13.5 7.6
05:55 1014 29.94 843 24.89 -7 19.4 61 -13.3 8
06:00 1014 29.94 843 24.89 -7.1 19.3 61 -13.4 7.9
06:05 1014 29.94 843 24.89 -7.2 19 63 -13.1 8.4
06:10 1014 29.94 843 24.89 -7.3 18.9 63 -13.2 8.2
06:15 1014 29.94 843 24.89 -7.4 18.7 64 -13.1 8.4
06:20 1014 29.94 843 24.89 -7.5 18.5 65 -13 8.6
06:25 1014 29.94 843 24.89 -7.6 18.4 65 -13.1 8.5
06:30 1014 29.94 843 24.89 -7.4 18.8 65 -12.9 8.8
06:35 1014 29.94 843 24.89 -7.6 18.3 66 -12.9 8.8
06:40 1014 29.94 843 24.89 -8 17.7 67 -13.1 8.5
06:45 1014 29.94 843 24.89 -7.9 17.8 67 -13 8.7
06:50 1014 29.94 843 24.89 -7.7 18.1 67 -12.9 8.8
06:55 1014 29.94 843 24.89 -7.5 18.5 64 -13.1 8.4
07:00 1014 29.94 843 24.89 -7.5 18.5 64 -13.2 8.3
07:05 1014 29.94 843 24.89 -7.9 17.8 66 -13.2 8.2
07:10 1014 29.94 843 24.89 -8.1 17.4 67 -13.3 8.1
07:15 1014 29.94 843 24.89 -8.3 17 67 -13.5 7.7
07:20 1014 29.94 843 24.89 -8.1 17.4 66 -13.4 7.8
07:25 1014 29.94 844 24.92 -8.1 17.4 66 -13.4 7.8
07:30 1014 29.94 844 24.92 -8.1 17.5 65 -13.5 7.7
07:35 1014 29.94 844 24.92 -7.8 17.9 64 -13.6 7.6
07:40 1015 29.97 844 24.92 -7.7 18.2 62 -13.7 7.4
07:45 1015 29.97 844 24.92 -7.7 18.1 64 -13.5 7.7
07:50 1015 29.97 844 24.92 -8.1 17.5 67 -13.2 8.2
07:55 1015 29.97 844 24.92 -8.4 16.8 67 -13.5 7.6
08:00 1015 29.97 844 24.92 -8.2 17.2 66 -13.5 7.7
08:05 1015 29.97 844 24.92 -7.8 17.9 64 -13.5 7.6
08:10 1015 29.97 844 24.92 -7.2 19 61 -13.4 7.8
08:15 1015 29.97 844 24.92 -7.1 19.3 61 -13.3 8.1
08:20 1015 29.97 844 24.92 -7.1 19.3 62 -13.1 8.3
08:25 1015 29.97 844 24.92 -6.9 19.5 61 -13.2 8.2
08:30 1015 29.97 844 24.92 -6.9 19.5 62 -13 8.6
08:35 1015 29.97 844 24.92 -6.9 19.5 62 -13 8.6
08:40 1015 29.97 844 24.92 -7 19.4 63 -12.9 8.8
08:45 1015 29.97 844 24.92 -7 19.3 63 -12.9 8.9
08:50 1015 29.97 844 24.92 -6.9 19.5 63 -12.9 8.8
08:55 1015 29.97 844 24.92 -6.9 19.6 61 -13.2 8.3
09:00 1015 29.97 844 24.92 -6.7 20 62 -12.9 8.8
09:05 1015 29.97 844 24.92 -6.4 20.5 61 -12.6 9.2
09:10 1014 29.94 844 24.92 -6 21.2 59 -12.8 9
09:15 1014 29.94 844 24.92 -5.7 21.8 59 -12.4 9.6
09:20 1014 29.94 844 24.92 -5.2 22.6 55 -12.9 8.8
09:25 1014 29.94 844 24.92 -5 23 53 -13.1 8.5
09:30 1014 29.94 844 24.92 -4.8 23.4 53 -13 8.6
09:35 1014 29.94 844 24.92 -4.5 24 51 -13.1 8.4
09:40 1014 29.94 844 24.92 -4.2 24.4 51 -13 8.5
09:45 1014 29.94 844 24.92 -4.1 24.6 52 -12.6 9.4
09:50 1014 29.94 844 24.92 -3.9 24.9 51 -12.6 9.4
09:55 1014 29.94 844 24.92 -4 24.8 53 -12.2 10.1
10:00 1014 29.94 843 24.89 -3.8 25.2 50 -12.7 9.2
10:05 1014 29.94 844 24.92 -3.4 25.9 49 -12.5 9.4
10:10 1014 29.94 844 24.92 -3.1 26.5 50 -12.2 10.1
10:15 1014 29.94 844 24.92 -3 26.5 51 -11.8 10.7
10:20 1014 29.94 843 24.89 -3 26.6 51 -11.7 10.9
10:25 1014 29.94 843 24.89 -2.9 26.8 52 -11.4 11.4
10:30 1014 29.94 844 24.92 -3.1 26.4 51 -11.8 10.7
10:35 1014 29.94 844 24.92 -3.2 26.3 50 -12.1 10.2
10:40 1014 29.94 844 24.92 -2.7 27.2 50 -11.6 11.1
10:45 1014 29.94 843 24.89 -1.9 28.6 46 -12.1 10.2
10:50 1014 29.94 843 24.89 -2.1 28.2 48 -11.7 11
10:55 1014 29.94 843 24.89 -2 28.4 47 -11.8 10.8
11:00 1014 29.94 843 24.89 -2.1 28.2 48 -11.7 11
11:05 1014 29.94 843 24.89 -1.6 29.1 47 -11.4 11.4
11:10 1014 29.94 844 24.92 -0.5 31.1 43 -11.7 11
11:15 1014 29.94 844 24.92 -0.3 31.4 45 -11 12.2
11:20 1014 29.94 844 24.92 -0.4 31.2 42 -11.9 10.6
11:25 1014 29.94 844 24.92 -0.6 31 42 -12 10.4
11:30 1014 29.94 843 24.89 -0.8 30.7 45 -11.3 11.6
11:35 1014 29.94 843 24.89 -0.9 30.4 45 -11.3 11.6
11:40 1014 29.94 843 24.89 -0.3 31.5 43 -11.4 11.5
11:45 1014 29.94 843 24.89 -0.3 31.5 44 -11.1 12
11:50 1014 29.94 843 24.89 0.1 32.2 44 -10.7 12.8
11:55 1014 29.94 843 24.89 0.1 32.1 45 -10.4 13.2
12:00 1014 29.94 843 24.89 0.2 32.3 45 -10.5 13.1
12:05 1014 29.94 843 24.89 -0 31.9 47 -10 14
12:10 1014 29.94 843 24.89 -1.1 30.1 51 -10 14
12:15 1014 29.94 843 24.89 -1.4 29.5 52 -9.9 14.1
12:20 1014 29.94 843 24.89 -1.9 28.6 51 -10.8 12.5
12:25 1014 29.94 843 24.89 -1.9 28.7 51 -10.7 12.7
12:30 1014 29.94 843 24.89 -1.7 29 52 -10.3 13.4
12:35 1014 29.94 843 24.89 -1.6 29.1 51 -10.5 13.1
12:40 1014 29.94 843 24.89 -2.2 28 53 -10.5 13
12:45 1014 29.94 843 24.89 -2.4 27.6 54 -10.5 13.1
12:50 1013 29.91 843 24.89 -2.4 27.6 54 -10.5 13.1
12:55 1013 29.91 843 24.89 -2.3 27.9 54 -10.3 13.4
13:00 1013 29.91 843 24.89 -2.3 27.8 55 -10.1 13.9
13:05 1013 29.91 843 24.89 -2.2 28.1 53 -10.6 13
13:10 1013 29.91 843 24.89 -2.4 27.7 54 -10.4 13.3
13:15 1013 29.91 842 24.86 -2.8 27 55 -10.6 12.9
13:20 1013 29.91 842 24.86 -2.9 26.8 57 -10.4 13.3
13:25 1013 29.91 842 24.86 -3.2 26.3 58 -10.3 13.4
13:30 1013 29.91 842 24.86 -3.2 26.3 59 -10.1 13.8
13:35 1013 29.91 842 24.86 -3.5 25.8 60 -10.2 13.7
13:40 1013 29.91 842 24.86 -3.7 25.4 59 -10.5 13
13:45 1013 29.91 842 24.86 -3.3 26 57 -10.6 12.9
13:50 1013 29.91 842 24.86 -3.5 25.7 59 -10.4 13.2
13:55 1013 29.91 842 24.86 -3.5 25.7 57 -10.8 12.6
14:00 1013 29.91 842 24.86 -3.8 25.1 60 -10.5 13.2
14:05 1013 29.91 842 24.86 -3.8 25.1 60 -10.6 12.9
14:10 1013 29.91 842 24.86 -3.9 25 60 -10.6 12.9
14:15 1013 29.91 842 24.86 -4.1 24.5 60 -10.7 12.7
14:20 1013 29.91 842 24.86 -4.3 24.3 61 -10.8 12.5
14:25 1013 29.91 842 24.86 -4.2 24.4 61 -10.8 12.6
14:30 1013 29.91 842 24.86 -4 24.8 58 -11 12.1
14:35 1013 29.91 842 24.86 -4.2 24.5 59 -11.1 11.9
14:40 1013 29.91 842 24.86 -4.4 24.1 61 -10.8 12.5
14:45 1013 29.91 842 24.86 -4.6 23.7 61 -11 12.2
14:50 1013 29.91 842 24.86 -4.8 23.3 63 -10.9 12.4
14:55 1013 29.91 842 24.86 -5 23.1 62 -11.1 12
15:00 1013 29.91 842 24.86 -5.1 22.8 63 -11.1 12
15:05 1013 29.91 842 24.86 -5.3 22.4 64 -11.2 11.8
15:10 1013 29.91 842 24.86 -5.5 22.2 64 -11.2 11.9
15:15 1013 29.91 842 24.86 -5.6 22 65 -11.2 11.9
15:20 1013 29.91 842 24.86 -5.7 21.7 66 -11.1 11.9
15:25 1013 29.91 842 24.86 -5.9 21.4 68 -10.9 12.4
15:30 1013 29.91 842 24.86 -6.1 20.9 69 -11 12.2
15:35 1013 29.91 842 24.86 -6.2 20.9 68 -11.1 12.1
15:40 1013 29.91 842 24.86 -6.3 20.7 68 -11.2 11.8
15:45 1013 29.91 842 24.86 -6.5 20.4 70 -11.1 12.1
15:50 1013 29.91 842 24.86 -6.7 20 71 -11.1 12
15:55 1013 29.91 842 24.86 -6.8 19.8 71 -11.3 11.7
16:00 1013 29.91 842 24.86 -7 19.5 72 -11.2 11.8
16:05 1013 29.91 842 24.86 -7.1 19.3 71 -11.5 11.3
16:10 1013 29.91 842 24.86 -7.1 19.3 71 -11.5 11.3
16:15 1013 29.91 842 24.86 -7.2 19 71 -11.6 11.2
16:20 1013 29.91 842 24.86 -7.2 19 72 -11.4 11.4
16:25 1013 29.91 842 24.86 -7.3 18.8 73 -11.4 11.5
16:30 1013 29.91 842 24.86 -7.4 18.8 72 -11.6 11.2
16:35 1013 29.91 842 24.86 -7.4 18.6 72 -11.7 11
16:40 1013 29.91 842 24.86 -7.4 18.6 73 -11.5 11.3
16:45 1013 29.91 842 24.86 -7.5 18.6 72 -11.7 10.9
16:50 1013 29.91 842 24.86 -7.6 18.3 73 -11.6 11.2
16:55 1013 29.91 842 24.86 -7.7 18.2 73 -11.8 10.8
17:00 1013 29.91 842 24.86 -7.7 18.2 73 -11.7 10.9
17:05 1013 29.91 842 24.86 -7.8 18 73 -11.8 10.7
17:10 1013 29.91 842 24.86 -7.8 17.9 71 -12.2 10
17:15 1013 29.91 842 24.86 -8 17.7 71 -12.3 9.9
17:20 1013 29.91 842 24.86 -8 17.6 71 -12.3 9.8
17:25 1013 29.91 842 24.86 -8.1 17.5 72 -12.3 9.8
17:30 1013 29.91 842 24.86 -8.1 17.3 71 -12.5 9.5
17:35 1013 29.91 842 24.86 -8.3 17 72 -12.5 9.5
17:40 1013 29.91 843 24.89 -8.4 16.9 72 -12.5 9.5
17:45 1013 29.91 843 24.89 -8.5 16.7 73 -12.5 9.5
17:50 1013 29.91 843 24.89 -8.5 16.7 73 -12.5 9.5
17:55 1013 29.91 843 24.89 -8.6 16.5 73 -12.6 9.3
18:00 1013 29.91 843 24.89 -8.6 16.5 72 -12.7 9.1
18:05 1013 29.91 843 24.89 -8.7 16.3 73 -12.8 9
18:10 1014 29.94 843 24.89 -8.9 16.1 72 -13 8.5
18:15 1014 29.94 843 24.89 -8.9 15.9 72 -13.1 8.4
18:20 1014 29.94 843 24.89 -8.9 16 72 -13.1 8.5
18:25 1014 29.94 843 24.89 -9 15.8 72 -13.3 8.1
18:30 1014 29.94 843 24.89 -9 15.7 71 -13.3 8.1
18:35 1014 29.94 843 24.89 -9.1 15.7 71 -13.3 8
18:40 1013 29.91 843 24.89 -9.1 15.5 71 -13.4 7.8
18:45 1014 29.94 843 24.89 -9.2 15.4 71 -13.5 7.7
18:50 1013 29.91 843 24.89 -9.2 15.4 72 -13.5 7.8
18:55 1014 29.94 843 24.89 -9.2 15.4 71 -13.5 7.7
19:00 1014 29.94 843 24.89 -9.3 15.2 71 -13.7 7.3
19:05 1014 29.94 843 24.89 -9.4 15.1 71 -13.7 7.4
19:10 1014 29.94 843 24.89 -9.5 14.9 71 -13.9 7
19:15 1014 29.94 843 24.89 -9.5 14.9 72 -13.7 7.3
19:20 1013 29.91 843 24.89 -9.5 14.9 70 -14 6.8
19:25 1014 29.94 843 24.89 -9.6 14.8 70 -14 6.8
19:30 1014 29.94 843 24.89 -9.6 14.8 70 -14 6.7
19:35 1014 29.94 843 24.89 -9.6 14.7 71 -13.9 6.9
19:40 1014 29.94 843 24.89 -9.7 14.6 71 -13.9 6.9
19:45 1014 29.94 843 24.89 -9.7 14.6 72 -13.8 7.2
19:50 1014 29.94 843 24.89 -9.7 14.5 73 -13.7 7.4
19:55 1014 29.94 843 24.89 -9.7 14.5 73 -13.7 7.4
20:00 1014 29.94 843 24.89 -9.7 14.5 73 -13.8 7.2
20:05 1013 29.91 843 24.89 -9.7 14.5 73 -13.8 7.2
20:10 1014 29.94 843 24.89 -9.8 14.5 73 -13.7 7.4
20:15 1014 29.94 843 24.89 -9.8 14.4 74 -13.7 7.4
20:20 1014 29.94 843 24.89 -9.8 14.4 73 -13.7 7.3
20:25 1014 29.94 843 24.89 -9.8 14.4 74 -13.6 7.5
20:30 1014 29.94 843 24.89 -9.8 14.3 74 -13.6 7.5
20:35 1014 29.94 843 24.89 -9.8 14.3 75 -13.5 7.7
20:40 1014 29.94 843 24.89 -9.8 14.3 74 -13.6 7.6
20:45 1014 29.94 843 24.89 -9.8 14.4 75 -13.4 7.9
20:50 1014 29.94 843 24.89 -9.8 14.3 76 -13.3 8
20:55 1014 29.94 843 24.89 -9.8 14.3 76 -13.3 8.1
21:00 1014 29.94 843 24.89 -9.8 14.3 76 -13.3 8.1
21:05 1014 29.94 843 24.89 -9.8 14.4 76 -13.2 8.3
21:10 1014 29.94 843 24.89 -9.8 14.4 76 -13.3 8.1
21:15 1014 29.94 843 24.89 -9.8 14.4 76 -13.3 8
21:20 1014 29.94 843 24.89 -9.8 14.4 76 -13.3 8
21:25 1014 29.94 843 24.89 -9.8 14.4 75 -13.4 7.8
21:30 1014 29.94 843 24.89 -9.8 14.4 75 -13.5 7.7
21:35 1014 29.94 843 24.89 -9.8 14.4 74 -13.6 7.5
21:40 1014 29.94 843 24.89 -9.8 14.3 74 -13.6 7.5
21:45 1014 29.94 843 24.89 -9.8 14.3 74 -13.6 7.5
21:50 1014 29.94 843 24.89 -9.9 14.2 73 -13.8 7.2
21:55 1014 29.94 843 24.89 -9.9 14.2 73 -13.9 7
22:00 1014 29.94 843 24.89 -9.9 14.2 72 -14 6.8
22:05 1014 29.94 843 24.89 -9.9 14.2 73 -13.9 6.9
22:10 1014 29.94 843 24.89 -10 14.1 72 -14.1 6.6
22:15 1014 29.94 843 24.89 -10 14 72 -14.1 6.7
22:20 1014 29.94 843 24.89 -10 13.9 72 -14.2 6.5
22:25 1014 29.94 843 24.89 -10 13.9 72 -14.2 6.4
22:30 1014 29.94 843 24.89 -10 13.9 72 -14.3 6.3
22:35 1014 29.94 843 24.89 -10 14 71 -14.3 6.3
22:40 1014 29.94 843 24.89 -10.1 13.8 72 -14.3 6.2
22:45 1014 29.94 843 24.89 -10.1 13.8 72 -14.3 6.2
22:50 1014 29.94 843 24.89 -10.2 13.7 72 -14.4 6.2
22:55 1014 29.94 843 24.89 -10.2 13.6 72 -14.4 6
23:00 1014 29.94 843 24.89 -10.3 13.6 72 -14.5 6
23:05 1014 29.94 843 24.89 -10.3 13.5 72 -14.5 5.9
23:10 1014 29.94 843 24.89 -10.4 13.3 72 -14.6 5.8
23:15 1014 29.94 843 24.89 -10.4 13.2 72 -14.5 5.8
23:20 1014 29.94 843 24.89 -10.5 13.2 72 -14.7 5.6
23:25 1014 29.94 843 24.89 -10.5 13.2 71 -14.8 5.4
23:30 1014 29.94 843 24.89 -10.5 13.2 71 -14.7 5.5
23:35 1014 29.94 843 24.89 -10.5 13.1 71 -14.8 5.4
23:40 1014 29.94 843 24.89 -10.5 13.1 71 -14.8 5.3
23:45 1014 29.94 843 24.89 -10.6 13 71 -14.8 5.3
23:50 1014 29.94 843 24.89 -10.6 13 72 -14.8 5.4
23:55 1014 29.94 843 24.89 -10.6 13 71 -14.8 5.3
24:00 1014 29.94 843 24.89 -10.6 13 70 -14.9 5.1